Historyczne dane pomiarowe

Dodano dane terminowe – wersja testowa.

Dane z okresu 1951-2019

Wersja bazy: 1.34 [2019-03-16, lista zmian], aktualizacja planowana na 2019-04-15

Dane meteo z obszaru Polski uzyskane na podstawie danych udostępnionych przez Instytut Meteorologii i Gospodarki Wodnej – Państwowy Instytut Badawczy.

 

Wybierz Datę:    

       

TemperaturaWilgotnośćWiatrCiśnienieOpadyŚniegCzas trwania zjawisk
 Stacja t tx tn tng RH VA  wxwx mslp ppp RRR   cm mm wxwxwxwxwxwxwx
1956-10-10 2.1 8.4 -1.8 1.7 86.3- 3.3 2.0---- 0.0------------
1956-10-09 6.9 8.7 0.1 -4.2 87.5- 8.0 2.7---- 3.5------------
1956-10-08 2.2 8.1 -1.9 -6.1 91.3- 4.3 1.0---- 0.0------------
1956-10-07 4.1 9.1 1.6 2.0 85.5- 5.3 6.0---- 0.1------------
1956-10-06 4.5 7.6 2.3 2.8 89.0- 8.0 4.7---- 3.4------------
1956-10-05 8.5 12.0 5.2 1.5 82.8- 6.3 2.3---- 11.2------------
1956-10-04 8.8 13.9 6.2 3.0 88.0- 4.7 2.3---- 1.0------------
1956-10-03 12.5 18.1 7.5 8.6 79.3- 5.3 7.3---- 4.1------------
1956-10-02 16.2 24.3 5.8 1.6 72.8- 2.7 2.7---- 0.0------------
1956-10-01 13.9 24.3 7.2 3.2 85.5- 2.7 2.0---- 0.0------------
1956-09-30 11.9 19.5 8.4 2.5 88.3- 2.3 0.3---- 0.0------------
1956-09-29 15.3 19.6 12.9 10.5 81.8- 7.3 5.3---- 0.0------------
1956-09-28 15.3 18.3 11.2 8.1 71.0- 4.0 3.3---- 0.0------------
1956-09-27 14.4 21.1 9.3 2.7 82.5- 4.7 1.3---- 0.2------------
1956-09-26 17.1 21.1 14.1 10.0 49.3- 1.0 7.3---- 0.0------------
1956-09-25 18.2 21.5 9.4 5.7 44.8- 0.0 7.3---- 0.0------------
1956-09-24 10.6 15.6 7.4 4.5 82.8- 0.3 7.7---- 0.0------------
1956-09-23 13.0 19.2 4.2 -1.0 72.5- 0.0 5.3---- 0.0------------
1956-09-22 12.5 21.5 0.8 -0.2 71.0- 0.0 1.3---- 0.0------------
1956-09-21 9.3 20.2 0.6 -4.1 86.0- 0.0 0.0---- 0.0------------
1956-09-20 7.6 18.1 -0.6 -5.5 84.0- 4.3 0.0---- 0.0------------
1956-09-19 6.2 14.8 -0.9 -5.2 82.0- 0.7 2.0---- 0.0------------
1956-09-18 6.5 13.4 4.1 3.4 89.5- 4.7 0.3---- 0.0------------
1956-09-17 9.4 10.5 6.7 0.5 93.0- 7.3 4.7---- 12.1------------
1956-09-16 8.7 16.8 2.3 -1.4 87.0- 2.7 0.0---- 0.0------------
1956-09-15 7.3 13.8 0.1 -2.3 95.0- 0.7 1.3---- 0.0------------
1956-09-14 8.2 14.6 5.7 8.2 88.5- 5.3 1.3---- 0.0------------
1956-09-13 8.3 11.9 7.2 6.7 87.3- 7.0 5.3---- 10.9------------
1956-09-12 9.8 14.8 8.1 7.2 83.8- 7.0 6.0---- 8.3------------
1956-09-11 13.6 17.5 10.4 15.9 92.0- 5.0 3.0---- 5.3------------
1956-09-10 16.0 24.4 5.7 5.8 83.8- 6.0 0.3---- 0.0------------
1956-09-09 11.1 19.5 4.1 4.0 86.0- 1.3 0.3---- 0.0------------
1956-09-08 11.1 18.8 7.7 5.6 89.5- 2.3 2.0---- 1.6------------
1956-09-07 15.5 21.0 12.3 11.0 77.0- 3.7 2.0---- 0.0------------
1956-09-06 16.3 23.3 5.4 1.6 72.5- 5.7 2.0---- 0.0------------
1956-09-05 11.5 19.8 3.0 -1.0 84.8- 2.7 2.0---- 0.0------------
1956-09-04 11.3 18.9 9.1 3.2 89.0- 4.7 1.3---- 0.0------------
1956-09-03 20.3 30.6 12.4 9.3 78.5- 4.7 3.3---- 9.0------------
1956-09-02 18.6 25.0 7.7 3.5 73.5- 4.3 5.0---- 0.0------------
1956-09-01 15.2 21.8 3.5 0.0 76.5- 3.7 3.7---- 0.0------------
1956-08-31 9.9 18.6 2.7 -1.1 86.0- 1.0 1.0---- 0.0------------
1956-08-30 11.3 15.1 9.8 9.5 87.0- 5.3 3.7---- 9.0------------
1956-08-29 15.3 19.7 13.2 9.3 77.5- 6.7 2.7---- 12.2------------
1956-08-28 17.1 23.8 15.2 11.6 74.8- 4.7 3.7---- 0.8------------
1956-08-27 20.5 25.3 8.5 2.9 71.8- 5.7 4.7---- 0.0------------
1956-08-26 13.8 20.1 10.0 2.5 64.8- 1.3 7.0---- 0.0------------
1956-08-25 13.3 18.8 5.9 -0.3 75.3- 6.7 6.7---- 0.0------------
1956-08-24 11.4 17.4 5.2 0.8 80.0- 6.0 3.0---- 0.1------------
1956-08-23 11.2 12.8 8.8 4.7 94.8- 8.0 2.7---- 12.6------------
1956-08-22 13.2 18.9 5.9 5.0 88.0- 5.7 0.7---- 0.0------------
1956-08-21 13.8 17.0 12.8 11.8 91.3- 7.3 0.0---- 3.7------------
1956-08-20 17.7 23.8 10.2 3.2 70.3- 5.3 2.3---- 0.0------------
1956-08-19 16.7 23.1 14.0 9.9 67.8- 4.0 4.7---- 0.0------------
1956-08-18 16.9 23.0 10.0 6.0 83.5- 6.0 0.7---- 0.0------------
1956-08-17 17.0 23.6 12.4 9.0 71.3- 4.0 2.7---- 0.0------------
1956-08-16 13.4 18.2 7.4 4.3 84.0- 5.3 3.3---- 0.0------------
1956-08-15 12.6 17.6 6.3 1.5 77.0- 5.7 4.3---- 0.0------------
1956-08-14 16.6 23.4 6.7 1.5 78.0- 5.0 3.0---- 9.9------------
1956-08-13 12.4 19.5 4.1 -0.1 83.5- 3.0 0.7---- 0.0------------
1956-08-12 12.6 18.0 10.0 7.4 86.0- 4.0 3.3---- 2.9------------
269.8 ms

 

Źródłem pochodzenia danych jest Instytut Meteorologii i Gospodarki Wodnej – Państwowy Instytut Badawczy. Dane Instytutu Meteorologii i Gospodarki Wodnej – Państwowego Instytutu Badawczego zostały przetworzone.

Dane źródłowe można odnaleźć na stronie https://dane.imgw.pl